Estación Meteorológica Peña el Pijo (Robertgarden) [ 11/20/18 00:45:03 CET ]

Fecha Hora Presion(HPa) Temp (°C) Humedad % Rocio (°C) Viento ( m/s) Direccion Lluvia 1Hora(mm) Lluvia 24H(mm) LLuvia Total(mm)
2018-Jan-06 01:01:46 996.000 -0.8 79 -4.0         27.97
2018-Jan-06 02:01:41 994.700 -0.7 81 -3.5         27.97
2018-Jan-06 03:01:42 993.400 -0.8 82 -3.5         27.97
2018-Jan-06 04:03:09 991.900 -0.4 83 -2.9         27.97
2018-Jan-06 05:01:49 990.700 1.6 83 -1.0         27.97
2018-Jan-06 06:01:53 989.700 1.3 83 -1.3         27.97
2018-Jan-06 07:01:58 989.500 1.8 83 -0.8         27.97
2018-Jan-06 08:01:51 988.700 1.3 83 -1.3         27.97
2018-Jan-06 09:01:46 987.700 1.3 83 -1.3         27.97
2018-Jan-06 10:01:39 987.400 3.2 84 0.7         27.97
2018-Jan-06 11:01:55 987.000 7.7 68 2.2         27.97
2018-Jan-06 12:01:38 986.300 8.9 60 1.6         27.97
2018-Jan-06 13:01:29 985.300 9.1 60 1.8 0.1 NE     27.97
2018-Jan-06 14:01:51 985.400 5.8 73 1.3     1.55 1.55 29.52
2018-Jan-06 15:01:56 984.400 5.2 78 1.6     1.03 3.10 31.08
2018-Jan-06 16:01:56 985.200 4.7 80 1.5       3.10 31.08
2018-Jan-06 17:01:54 985.500 2.4 82 -0.4       3.10 31.08
2018-Jan-06 18:01:45 985.900 1.9 81 -1.0       3.10 31.08
2018-Jan-06 19:01:55 986.700 1.8 80 -1.3       3.10 31.08
2018-Jan-06 20:01:52 987.100 1.8 81 -1.1       3.10 31.08
2018-Jan-06 21:01:49 987.100 1.8 82 -1.0       3.10 31.08
2018-Jan-06 22:01:47 986.900 1.9 82 -0.9       3.10 31.08
2018-Jan-06 23:01:50 987.000 1.7 81 -1.2       3.10 31.08

Temperatura Máxima:    Temperatura Mínima:
Presión Máxima:996.000 Hpa    Presión Mínima:984.400 Hpa


Volver